Time;durP1;ratioP1;P1;durP2;ratioP2;P2;SDS_P1;SDS_P2;PMS_P1;PMS_P2;Temp;Humidity;BMP_temperature;BMP_pressure;BME280_temperature;BME280_humidity;BME280_pressure;Samples;Min_cycle;Max_cycle;Signal;HPM_P1;HPM_P2
2023/01/28 00:00:37;;;;;;;11.75;10.55;;;;;;;;;;5078069;28;20035;-72
2023/01/28 00:03:03;;;;;;;11.50;10.35;;;;;;;;;;5093332;28;20054;-73
2023/01/28 00:05:29;;;;;;;11.27;10.18;;;;;;;;;;5093551;28;20759;-73
2023/01/28 00:07:56;;;;;;;10.50;9.25;;;;;;;;;;5087211;28;20542;-73
2023/01/28 00:10:22;;;;;;;10.23;9.23;;;;;;;;;;5094063;28;20070;-73
2023/01/28 00:12:49;;;;;;;10.50;9.00;;;;;;;;;;5090649;28;20054;-73
2023/01/28 00:15:15;;;;;;;10.07;9.07;;;;;;;;;;5077558;28;20060;-72
2023/01/28 00:17:41;;;;;;;9.10;8.20;;;;;;;;;;5074816;28;20080;-72
2023/01/28 00:20:08;;;;;;;8.65;7.75;;;;;;;;;;5094127;28;20155;-72
2023/01/28 00:22:34;;;;;;;9.65;8.15;;;;;;;;;;5073472;28;20037;-72
2023/01/28 00:25:00;;;;;;;8.27;7.38;;;;;;;;;;5092045;28;20044;-72
2023/01/28 00:27:26;;;;;;;8.65;7.22;;;;;;;;;;5078130;28;20044;-72
2023/01/28 00:29:53;;;;;;;8.45;7.20;;;;;;;;;;5075643;28;20490;-72
2023/01/28 00:32:19;;;;;;;8.55;6.80;;;;;;;;;;5072738;28;20053;-72
2023/01/28 00:34:46;;;;;;;8.15;6.95;;;;;;;;;;5073892;28;20119;-72
2023/01/28 00:37:12;;;;;;;8.40;7.50;;;;;;;;;;5088573;28;20047;-72
2023/01/28 00:39:38;;;;;;;7.68;6.88;;;;;;;;;;5088967;28;20046;-72
2023/01/28 00:42:04;;;;;;;9.45;6.95;;;;;;;;;;5073453;28;20044;-72
2023/01/28 00:44:30;;;;;;;8.45;7.18;;;;;;;;;;5090147;28;20520;-72
2023/01/28 00:46:56;;;;;;;7.70;6.90;;;;;;;;;;5085312;28;20048;-72
2023/01/28 00:49:22;;;;;;;6.85;6.15;;;;;;;;;;5091688;28;20055;-72
2023/01/28 00:51:49;;;;;;;8.88;7.00;;;;;;;;;;5092201;28;20040;-72
2023/01/28 00:54:15;;;;;;;7.38;6.43;;;;;;;;;;5085451;28;20036;-72
2023/01/28 00:56:41;;;;;;;8.52;6.80;;;;;;;;;;5083358;28;20409;-72
2023/01/28 00:59:07;;;;;;;7.57;6.78;;;;;;;;;;5060545;28;20048;-72
2023/01/28 01:01:33;;;;;;;7.40;6.68;;;;;;;;;;5079306;28;20106;-72
2023/01/28 01:04:02;;;;;;;8.85;6.63;;;;;;;;;;5090606;28;20079;-72
2023/01/28 01:06:34;;;;;;;7.22;6.15;;;;;;;;;;5082747;28;20410;-72
2023/01/28 01:09:00;;;;;;;7.07;6.30;;;;;;;;;;5088827;28;20045;-72
2023/01/28 01:11:26;;;;;;;7.30;6.28;;;;;;;;;;5089202;28;20048;-72
2023/01/28 01:13:54;;;;;;;8.35;6.35;;;;;;;;;;5090049;28;20882;-72
2023/01/28 01:16:22;;;;;;;8.23;5.90;;;;;;;;;;5077674;28;20047;-72
2023/01/28 01:18:48;;;;;;;7.32;5.82;;;;;;;;;;5086103;28;20051;-72
2023/01/28 01:21:16;;;;;;;7.53;5.90;;;;;;;;;;5075708;28;20633;-72
2023/01/28 01:23:42;;;;;;;8.23;6.45;;;;;;;;;;5091045;28;20043;-72
2023/01/28 01:26:08;;;;;;;8.38;6.80;;;;;;;;;;5090124;28;20040;-72
2023/01/28 01:28:35;;;;;;;8.95;7.00;;;;;;;;;;5083488;28;20050;-72
2023/01/28 01:31:05;;;;;;;9.90;6.80;;;;;;;;;;5089527;28;20043;-72
2023/01/28 01:33:32;;;;;;;8.25;6.85;;;;;;;;;;5080525;28;20044;-72
2023/01/28 01:35:58;;;;;;;8.73;6.53;;;;;;;;;;5090241;28;20040;-71
2023/01/28 01:38:25;;;;;;;7.80;6.60;;;;;;;;;;5083294;28;20043;-71
2023/01/28 01:40:51;;;;;;;8.60;6.55;;;;;;;;;;5082355;28;20048;-72
2023/01/28 01:43:18;;;;;;;10.63;7.68;;;;;;;;;;5090520;28;20409;-72
2023/01/28 01:45:47;;;;;;;9.40;7.18;;;;;;;;;;5090518;28;20082;-72
2023/01/28 01:48:18;;;;;;;9.50;7.13;;;;;;;;;;5091371;28;20075;-72
2023/01/28 01:50:56;;;;;;;10.00;7.60;;;;;;;;;;5084678;28;20044;-72
2023/01/28 01:53:24;;;;;;;8.45;7.18;;;;;;;;;;5085654;28;20043;-72
2023/01/28 01:55:52;;;;;;;8.63;6.80;;;;;;;;;;5068618;28;20058;-72
2023/01/28 01:58:19;;;;;;;8.73;7.57;;;;;;;;;;5087076;28;20094;-72
2023/01/28 02:00:46;;;;;;;9.70;7.18;;;;;;;;;;5077558;28;20055;-72
2023/01/28 02:03:12;;;;;;;11.02;7.60;;;;;;;;;;5084684;28;20102;-72
2023/01/28 02:05:39;;;;;;;9.73;7.63;;;;;;;;;;5087237;28;20157;-72
2023/01/28 02:08:20;;;;;;;9.13;7.97;;;;;;;;;;5092621;28;20048;-72
2023/01/28 02:10:49;;;;;;;8.43;7.50;;;;;;;;;;5089821;28;20036;-72
2023/01/28 02:13:16;;;;;;;9.50;7.45;;;;;;;;;;5083555;28;20091;-72
2023/01/28 02:15:42;;;;;;;9.57;7.80;;;;;;;;;;5086104;28;20051;-72
2023/01/28 02:18:08;;;;;;;8.80;7.63;;;;;;;;;;5086406;28;20418;-72
2023/01/28 02:20:34;;;;;;;9.52;7.70;;;;;;;;;;5091446;28;20052;-72
2023/01/28 02:23:19;;;;;;;9.30;7.70;;;;;;;;;;5090079;28;20082;-73
2023/01/28 02:26:03;;;;;;;11.85;8.18;;;;;;;;;;5073894;28;20047;-72
2023/01/28 02:28:32;;;;;;;10.43;8.38;;;;;;;;;;5079910;28;20067;-73
2023/01/28 02:31:04;;;;;;;9.43;7.93;;;;;;;;;;5075387;28;20159;-72
2023/01/28 02:33:35;;;;;;;9.98;8.18;;;;;;;;;;5081467;28;20070;-73
2023/01/28 02:36:04;;;;;;;10.60;8.40;;;;;;;;;;5091876;28;20044;-72
2023/01/28 02:38:36;;;;;;;12.30;9.05;;;;;;;;;;5077399;28;20040;-72
2023/01/28 02:41:15;;;;;;;9.10;7.80;;;;;;;;;;5077518;28;20047;-72
2023/01/28 02:43:42;;;;;;;10.57;8.13;;;;;;;;;;5080692;28;20521;-72
2023/01/28 02:49:15;;;;;;;8.63;7.55;;;;;;;;;;5088132;28;20052;-73
2023/01/28 02:51:41;;;;;;;10.07;8.50;;;;;;;;;;5090329;28;20040;-73
2023/01/28 02:54:22;;;;;;;10.55;7.45;;;;;;;;;;5095295;28;20040;-72
2023/01/28 02:56:59;;;;;;;8.82;7.32;;;;;;;;;;5084766;28;20036;-73
2023/01/28 02:59:35;;;;;;;9.55;7.60;;;;;;;;;;5074269;28;20052;-73
2023/01/28 03:02:13;;;;;;;8.45;7.40;;;;;;;;;;5076765;28;20059;-72
2023/01/28 03:04:54;;;;;;;8.65;7.10;;;;;;;;;;5076146;28;20506;-72
2023/01/28 03:07:22;;;;;;;8.70;7.15;;;;;;;;;;5074526;28;20068;-73
2023/01/28 03:09:50;;;;;;;8.93;7.38;;;;;;;;;;5081578;28;20090;-72
2023/01/28 03:37:27;;;;;;;9.10;6.88;;;;;;;;;;5075515;28;20048;-72
2023/01/28 03:39:56;;;;;;;11.63;6.70;;;;;;;;;;5082608;28;20093;-72
2023/01/28 03:42:22;;;;;;;8.32;5.97;;;;;;;;;;5076492;28;20043;-72
2023/01/28 03:44:52;;;;;;;8.18;5.80;;;;;;;;;;5089621;28;20044;-72
2023/01/28 03:47:28;;;;;;;7.43;5.65;;;;;;;;;;5085334;28;20525;-72
2023/01/28 03:49:55;;;;;;;8.05;5.97;;;;;;;;;;5080379;28;20040;-72
2023/01/28 03:52:25;;;;;;;7.88;5.90;;;;;;;;;;5092188;28;20051;-72
2023/01/28 03:54:51;;;;;;;9.50;6.55;;;;;;;;;;5080127;28;20498;-72
2023/01/28 03:57:19;;;;;;;8.20;6.10;;;;;;;;;;5074316;28;20053;-72
2023/01/28 03:59:48;;;;;;;7.60;6.22;;;;;;;;;;5074430;28;20036;-72
2023/01/28 04:02:15;;;;;;;8.48;6.07;;;;;;;;;;5088566;28;20099;-72
2023/01/28 04:04:41;;;;;;;7.78;5.90;;;;;;;;;;5090052;28;20524;-72
2023/01/28 04:07:09;;;;;;;9.25;5.97;;;;;;;;;;5076314;28;20383;-72
2023/01/28 04:09:35;;;;;;;10.35;6.10;;;;;;;;;;5090128;28;20077;-72
2023/01/28 04:12:01;;;;;;;8.80;6.22;;;;;;;;;;5079520;28;20089;-72
2023/01/28 04:14:28;;;;;;;9.32;6.45;;;;;;;;;;5093444;28;20040;-72
2023/01/28 04:16:54;;;;;;;9.40;6.40;;;;;;;;;;5090591;28;20100;-72
2023/01/28 04:19:20;;;;;;;9.00;6.63;;;;;;;;;;5073601;28;20091;-72
2023/01/28 04:21:47;;;;;;;9.77;6.78;;;;;;;;;;5082122;28;20048;-72
2023/01/28 04:24:13;;;;;;;8.63;6.57;;;;;;;;;;5072760;28;20049;-72
2023/01/28 04:26:39;;;;;;;7.90;6.15;;;;;;;;;;5084383;28;20105;-72
2023/01/28 04:29:06;;;;;;;8.02;6.65;;;;;;;;;;5093055;28;20052;-72
2023/01/28 04:31:32;;;;;;;9.57;6.55;;;;;;;;;;5085707;28;20406;-72
2023/01/28 04:33:58;;;;;;;9.02;6.50;;;;;;;;;;5091927;28;20051;-72
2023/01/28 04:36:24;;;;;;;8.57;6.80;;;;;;;;;;5092358;28;20508;-72
2023/01/28 04:38:51;;;;;;;8.38;6.60;;;;;;;;;;5088072;28;20410;-72
2023/01/28 04:41:17;;;;;;;8.48;6.82;;;;;;;;;;5092855;28;20054;-72
2023/01/28 04:43:43;;;;;;;8.80;6.88;;;;;;;;;;5085423;28;20038;-72
2023/01/28 04:46:09;;;;;;;8.57;6.55;;;;;;;;;;5092192;28;20446;-73
2023/01/28 04:48:35;;;;;;;8.32;6.15;;;;;;;;;;5081980;28;20048;-73
2023/01/28 04:51:02;;;;;;;9.05;6.20;;;;;;;;;;5079864;28;20481;-73
2023/01/28 04:53:28;;;;;;;8.02;6.57;;;;;;;;;;5092580;28;20462;-73
2023/01/28 04:55:54;;;;;;;8.95;6.63;;;;;;;;;;5089618;28;20051;-73
2023/01/28 04:58:20;;;;;;;9.20;6.85;;;;;;;;;;5058335;28;20525;-73
2023/01/28 05:00:46;;;;;;;9.23;6.90;;;;;;;;;;5084859;28;20464;-73
2023/01/28 05:03:12;;;;;;;9.10;7.20;;;;;;;;;;5091996;28;20064;-73
2023/01/28 05:05:38;;;;;;;9.45;6.97;;;;;;;;;;5082333;28;20045;-73
2023/01/28 05:08:04;;;;;;;9.43;7.07;;;;;;;;;;5091241;28;20092;-73
2023/01/28 05:10:30;;;;;;;7.43;5.55;;;;;;;;;;5072312;28;20036;-73
2023/01/28 05:12:56;;;;;;;9.82;6.63;;;;;;;;;;5077595;28;20044;-73
2023/01/28 05:15:22;;;;;;;10.55;6.72;;;;;;;;;;5088899;28;20040;-73
2023/01/28 05:17:48;;;;;;;7.90;6.35;;;;;;;;;;5086883;28;20097;-73
2023/01/28 05:20:15;;;;;;;9.57;6.82;;;;;;;;;;5091561;28;20043;-73
2023/01/28 05:22:42;;;;;;;8.73;6.50;;;;;;;;;;5092375;28;20044;-73
2023/01/28 05:25:08;;;;;;;9.43;6.50;;;;;;;;;;5091955;28;20044;-73
2023/01/28 05:27:34;;;;;;;8.65;6.47;;;;;;;;;;5075951;28;20047;-72
2023/01/28 05:30:00;;;;;;;9.18;6.45;;;;;;;;;;5078797;28;20052;-73
2023/01/28 05:32:26;;;;;;;8.35;6.20;;;;;;;;;;5075286;28;20479;-73
2023/01/28 05:34:52;;;;;;;9.00;6.13;;;;;;;;;;5080637;28;20513;-73
2023/01/28 05:37:18;;;;;;;8.43;6.07;;;;;;;;;;5091819;28;20131;-73
2023/01/28 05:39:44;;;;;;;8.15;6.22;;;;;;;;;;5092539;28;20041;-73
2023/01/28 05:42:10;;;;;;;7.90;5.95;;;;;;;;;;5091399;28;20055;-73
2023/01/28 05:44:36;;;;;;;8.48;5.78;;;;;;;;;;5082191;28;20040;-73
2023/01/28 05:47:03;;;;;;;9.27;6.13;;;;;;;;;;5074909;28;20047;-73
2023/01/28 05:49:29;;;;;;;9.93;6.05;;;;;;;;;;5078309;28;20044;-73
2023/01/28 05:51:55;;;;;;;10.07;6.13;;;;;;;;;;5080772;28;20153;-72
2023/01/28 05:54:21;;;;;;;9.13;6.50;;;;;;;;;;5091392;28;20051;-72
2023/01/28 05:56:47;;;;;;;7.45;5.85;;;;;;;;;;5091235;28;20098;-72
2023/01/28 05:59:13;;;;;;;10.93;7.15;;;;;;;;;;5090849;28;20401;-72
2023/01/28 06:01:40;;;;;;;10.68;7.70;;;;;;;;;;5087873;28;20044;-72
2023/01/28 06:04:06;;;;;;;10.88;7.20;;;;;;;;;;5078476;28;20055;-72
2023/01/28 06:06:32;;;;;;;10.35;7.10;;;;;;;;;;5091791;28;20514;-72
2023/01/28 06:08:58;;;;;;;14.15;9.07;;;;;;;;;;5085993;28;20047;-72
2023/01/28 06:11:24;;;;;;;15.02;9.07;;;;;;;;;;5079217;28;20043;-72
2023/01/28 06:13:50;;;;;;;12.35;9.27;;;;;;;;;;5095122;28;20040;-72
2023/01/28 06:16:16;;;;;;;15.65;10.25;;;;;;;;;;5094902;28;20055;-72
2023/01/28 06:18:43;;;;;;;15.27;11.02;;;;;;;;;;5094195;28;20512;-72
2023/01/28 06:21:09;;;;;;;14.25;10.88;;;;;;;;;;5075781;28;20052;-72
2023/01/28 06:23:35;;;;;;;21.63;15.13;;;;;;;;;;5089580;28;20044;-72
2023/01/28 06:26:02;;;;;;;18.20;12.65;;;;;;;;;;5094717;28;20052;-72
2023/01/28 06:28:28;;;;;;;15.98;10.10;;;;;;;;;;5093742;28;20048;-72
2023/01/28 06:30:54;;;;;;;12.70;8.55;;;;;;;;;;5080973;28;20049;-72
2023/01/28 06:33:23;;;;;;;16.42;10.80;;;;;;;;;;5085470;28;20040;-72
2023/01/28 06:35:49;;;;;;;16.73;13.10;;;;;;;;;;5095293;28;20406;-72
2023/01/28 06:38:15;;;;;;;15.32;12.05;;;;;;;;;;5087189;28;20483;-72
2023/01/28 06:40:41;;;;;;;14.52;11.48;;;;;;;;;;5081180;28;20067;-72
2023/01/28 06:43:07;;;;;;;13.90;11.23;;;;;;;;;;5086440;28;20044;-72
2023/01/28 06:45:33;;;;;;;11.52;9.48;;;;;;;;;;5087991;28;20522;-72
2023/01/28 06:47:59;;;;;;;11.18;8.57;;;;;;;;;;5076673;28;20043;-73
2023/01/28 06:50:25;;;;;;;11.50;8.25;;;;;;;;;;5075797;28;20080;-72
2023/01/28 06:52:51;;;;;;;11.35;8.13;;;;;;;;;;5088784;28;20045;-72
2023/01/28 06:55:17;;;;;;;9.77;7.70;;;;;;;;;;5094179;28;20059;-72
2023/01/28 06:57:46;;;;;;;12.43;7.80;;;;;;;;;;5086254;28;20043;-72
2023/01/28 07:00:14;;;;;;;10.52;7.65;;;;;;;;;;5088282;28;20119;-72
2023/01/28 07:02:41;;;;;;;15.40;11.57;;;;;;;;;;5089965;28;20060;-72
2023/01/28 07:05:07;;;;;;;18.83;11.82;;;;;;;;;;5077087;28;20604;-72
2023/01/28 07:07:33;;;;;;;12.60;9.32;;;;;;;;;;5083526;28;20044;-72
2023/01/28 07:09:59;;;;;;;14.77;11.00;;;;;;;;;;5066654;28;20049;-72
2023/01/28 07:12:25;;;;;;;13.98;10.38;;;;;;;;;;5091574;28;20517;-73
2023/01/28 07:14:51;;;;;;;14.25;9.70;;;;;;;;;;5074219;28;20110;-73
2023/01/28 07:17:17;;;;;;;13.68;9.45;;;;;;;;;;5090892;28;20048;-73
2023/01/28 07:19:43;;;;;;;11.60;8.25;;;;;;;;;;5094433;28;20044;-73
2023/01/28 07:22:10;;;;;;;12.00;8.52;;;;;;;;;;5084342;28;20040;-73
2023/01/28 07:24:36;;;;;;;12.98;9.90;;;;;;;;;;5093364;28;20524;-73
2023/01/28 07:27:03;;;;;;;13.93;9.30;;;;;;;;;;5094433;28;20047;-73
2023/01/28 07:29:29;;;;;;;12.57;9.07;;;;;;;;;;5091297;28;20541;-73
2023/01/28 07:31:55;;;;;;;10.60;8.18;;;;;;;;;;5085322;28;20052;-73
2023/01/28 07:34:21;;;;;;;11.65;8.88;;;;;;;;;;5078760;28;20047;-73
2023/01/28 07:36:47;;;;;;;13.43;9.60;;;;;;;;;;5081711;28;20036;-73
2023/01/28 07:39:13;;;;;;;12.82;9.40;;;;;;;;;;5091150;28;20113;-73
2023/01/28 07:41:39;;;;;;;12.63;9.45;;;;;;;;;;5079077;28;20047;-73
2023/01/28 07:44:05;;;;;;;12.20;8.73;;;;;;;;;;5082057;28;20047;-73
2023/01/28 07:46:31;;;;;;;11.90;9.15;;;;;;;;;;5084057;28;20109;-73
2023/01/28 07:48:57;;;;;;;11.23;8.93;;;;;;;;;;5078057;28;20409;-72
2023/01/28 07:51:23;;;;;;;11.95;9.15;;;;;;;;;;5088743;28;20346;-72
2023/01/28 07:53:50;;;;;;;13.05;9.82;;;;;;;;;;5082076;28;20126;-72
2023/01/28 07:56:16;;;;;;;14.25;9.63;;;;;;;;;;5092159;28;20105;-72
2023/01/28 07:58:42;;;;;;;12.82;10.02;;;;;;;;;;5082341;28;20048;-73
2023/01/28 08:01:08;;;;;;;13.65;10.65;;;;;;;;;;5090162;28;20669;-73
2023/01/28 08:03:34;;;;;;;14.65;10.23;;;;;;;;;;5092431;28;20494;-72
2023/01/28 08:06:00;;;;;;;14.57;11.10;;;;;;;;;;5092406;28;20048;-72
2023/01/28 08:08:27;;;;;;;15.98;11.32;;;;;;;;;;5071782;28;20059;-72
2023/01/28 08:10:53;;;;;;;15.98;11.32;;;;;;;;;;5077436;28;20067;-72
2023/01/28 08:13:19;;;;;;;16.00;10.27;;;;;;;;;;5074585;28;20040;-72
2023/01/28 08:15:46;;;;;;;14.98;9.88;;;;;;;;;;5072992;28;20060;-72
2023/01/28 08:18:13;;;;;;;12.90;9.73;;;;;;;;;;5038360;28;20582;-72
2023/01/28 08:20:40;;;;;;;13.20;9.75;;;;;;;;;;5080255;28;20109;-72
2023/01/28 08:23:17;;;;;;;11.75;9.68;;;;;;;;;;5090408;28;20040;-72
2023/01/28 08:25:44;;;;;;;13.20;9.95;;;;;;;;;;5084495;28;20978;-73
2023/01/28 08:28:10;;;;;;;12.48;10.07;;;;;;;;;;5076457;28;20498;-73
2023/01/28 08:30:37;;;;;;;14.32;11.32;;;;;;;;;;5088689;28;20044;-73
2023/01/28 08:33:04;;;;;;;13.05;9.65;;;;;;;;;;5076305;28;20098;-73
2023/01/28 08:35:30;;;;;;;15.65;11.43;;;;;;;;;;5074212;28;20049;-73
2023/01/28 08:37:58;;;;;;;15.40;10.70;;;;;;;;;;5087712;28;20055;-72
2023/01/28 08:40:25;;;;;;;13.98;10.25;;;;;;;;;;5092584;28;20040;-73
2023/01/28 08:42:51;;;;;;;13.13;10.25;;;;;;;;;;5078174;28;20049;-73
2023/01/28 08:45:18;;;;;;;12.32;10.43;;;;;;;;;;5087984;28;20063;-72
2023/01/28 08:48:04;;;;;;;14.32;10.48;;;;;;;;;;5090937;28;20402;-73
2023/01/28 08:50:34;;;;;;;12.80;10.55;;;;;;;;;;5076475;28;20051;-73
2023/01/28 08:53:01;;;;;;;14.18;11.02;;;;;;;;;;5092170;28;20047;-73
2023/01/28 08:55:28;;;;;;;14.80;9.98;;;;;;;;;;5091698;28;20048;-73
2023/01/28 08:57:54;;;;;;;14.27;10.48;;;;;;;;;;5086388;28;20045;-73
2023/01/28 09:00:21;;;;;;;15.57;10.15;;;;;;;;;;5077729;28;20040;-73
2023/01/28 09:02:51;;;;;;;155.70;18.70;;;;;;;;;;5092352;28;20154;-73
2023/01/28 09:05:17;;;;;;;15.60;10.40;;;;;;;;;;5086674;28;20028;-73
2023/01/28 09:07:43;;;;;;;30.95;11.45;;;;;;;;;;5092038;28;20063;-73
2023/01/28 09:10:09;;;;;;;17.67;10.38;;;;;;;;;;5084384;28;20049;-73
2023/01/28 09:12:36;;;;;;;13.68;9.70;;;;;;;;;;5090539;28;20043;-71
2023/01/28 09:15:03;;;;;;;13.70;9.75;;;;;;;;;;5081558;28;20116;-72
2023/01/28 09:17:29;;;;;;;11.60;10.02;;;;;;;;;;5079737;28;20036;-73
2023/01/28 09:19:55;;;;;;;12.55;10.05;;;;;;;;;;5084742;28;20117;-73
2023/01/28 09:22:21;;;;;;;13.18;10.50;;;;;;;;;;5058254;28;20044;-73
2023/01/28 09:24:47;;;;;;;13.07;10.50;;;;;;;;;;5082550;28;20055;-74
2023/01/28 09:27:13;;;;;;;13.35;10.65;;;;;;;;;;5091530;28;20052;-73
2023/01/28 09:29:39;;;;;;;17.77;10.80;;;;;;;;;;5086664;28;20052;-73
2023/01/28 09:32:06;;;;;;;13.35;10.93;;;;;;;;;;5079775;28;20426;-73
2023/01/28 09:34:32;;;;;;;13.02;10.25;;;;;;;;;;5090582;28;20084;-74
2023/01/28 09:36:58;;;;;;;12.80;9.95;;;;;;;;;;5089716;28;20128;-74
2023/01/28 09:39:27;;;;;;;12.30;10.20;;;;;;;;;;5091230;28;20621;-74
2023/01/28 09:42:02;;;;;;;11.85;9.90;;;;;;;;;;5089413;28;20116;-74
2023/01/28 09:44:50;;;;;;;12.50;9.07;;;;;;;;;;5082877;28;20053;-74
2023/01/28 09:47:22;;;;;;;12.98;10.65;;;;;;;;;;5078604;28;20112;-74
2023/01/28 09:49:49;;;;;;;13.70;10.80;;;;;;;;;;5084336;28;20051;-74
2023/01/28 09:52:17;;;;;;;15.65;10.27;;;;;;;;;;5079265;28;20048;-74
2023/01/28 09:54:43;;;;;;;13.57;10.57;;;;;;;;;;5077018;28;20106;-73
2023/01/28 09:57:20;;;;;;;12.23;9.82;;;;;;;;;;5076468;28;20055;-73
2023/01/28 09:59:48;;;;;;;13.18;9.50;;;;;;;;;;5090075;28;20044;-73
2023/01/28 10:02:20;;;;;;;12.95;10.00;;;;;;;;;;5079064;28;20047;-73
2023/01/28 10:04:58;;;;;;;12.43;9.32;;;;;;;;;;5075685;28;20052;-73
2023/01/28 10:07:33;;;;;;;13.23;9.40;;;;;;;;;;5083273;28;20498;-73
2023/01/28 10:10:03;;;;;;;11.80;9.23;;;;;;;;;;5079836;28;20072;-73
2023/01/28 10:12:32;;;;;;;11.38;9.55;;;;;;;;;;5084466;28;20036;-73
2023/01/28 10:15:10;;;;;;;12.65;9.40;;;;;;;;;;5095267;28;20444;-73
2023/01/28 10:17:43;;;;;;;11.35;8.57;;;;;;;;;;5095296;28;20044;-73
2023/01/28 10:20:15;;;;;;;13.30;8.40;;;;;;;;;;5084643;28;20044;-74
2023/01/28 10:22:44;;;;;;;10.95;8.75;;;;;;;;;;5077707;28;20091;-75
2023/01/28 10:25:20;;;;;;;11.55;8.80;;;;;;;;;;5085505;28;20102;-73
2023/01/28 10:27:47;;;;;;;10.57;7.80;;;;;;;;;;5083871;28;20389;-73
2023/01/28 10:30:16;;;;;;;12.40;8.43;;;;;;;;;;5080847;28;20052;-73
2023/01/28 10:32:48;;;;;;;11.38;8.55;;;;;;;;;;5086563;28;20123;-73
2023/01/28 10:35:14;;;;;;;11.32;9.27;;;;;;;;;;5095544;28;20044;-73
2023/01/28 10:37:40;;;;;;;12.27;9.05;;;;;;;;;;5091181;28;20517;-73
2023/01/28 10:40:07;;;;;;;10.63;7.95;;;;;;;;;;5079128;28;20047;-73
2023/01/28 10:42:37;;;;;;;11.45;8.02;;;;;;;;;;5094311;28;20040;-73
2023/01/28 10:45:03;;;;;;;12.60;8.63;;;;;;;;;;5095552;28;20097;-74
2023/01/28 10:47:32;;;;;;;10.55;8.45;;;;;;;;;;5077017;28;20097;-73
2023/01/28 10:49:59;;;;;;;15.73;8.90;;;;;;;;;;5081809;28;20123;-74
2023/01/28 10:52:25;;;;;;;10.90;8.48;;;;;;;;;;5075006;28;20044;-74
2023/01/28 10:55:01;;;;;;;20.08;8.48;;;;;;;;;;5077754;28;20059;-73
2023/01/28 10:57:27;;;;;;;14.02;8.25;;;;;;;;;;5093779;28;20071;-73
2023/01/28 10:59:53;;;;;;;15.20;7.57;;;;;;;;;;5095303;28;20131;-74
2023/01/28 11:02:24;;;;;;;30.77;7.75;;;;;;;;;;5095003;28;20477;-73
2023/01/28 11:05:00;;;;;;;11.10;6.93;;;;;;;;;;5095047;28;20054;-74
2023/01/28 11:07:26;;;;;;;27.80;7.65;;;;;;;;;;5089168;28;20037;-74
2023/01/28 11:09:52;;;;;;;14.45;7.72;;;;;;;;;;5091536;28;20040;-73
2023/01/28 11:12:26;;;;;;;9.88;6.93;;;;;;;;;;5090378;28;20044;-73
2023/01/28 11:14:56;;;;;;;12.15;7.00;;;;;;;;;;5086850;28;20406;-74
2023/01/28 11:17:24;;;;;;;21.25;8.20;;;;;;;;;;5088538;28;20044;-74
2023/01/28 11:19:52;;;;;;;16.00;8.43;;;;;;;;;;5077042;28;20153;-73
2023/01/28 11:22:24;;;;;;;17.60;8.00;;;;;;;;;;5078091;28;20402;-74
2023/01/28 11:24:50;;;;;;;13.73;8.68;;;;;;;;;;5072585;28;20070;-74
2023/01/28 11:27:18;;;;;;;16.50;8.45;;;;;;;;;;5094280;28;20047;-75
2023/01/28 11:29:44;;;;;;;21.98;8.40;;;;;;;;;;5081821;28;20049;-73
2023/01/28 11:32:20;;;;;;;14.63;7.65;;;;;;;;;;5079449;28;20390;-74
2023/01/28 11:34:51;;;;;;;12.75;8.48;;;;;;;;;;5073829;28;20060;-73
2023/01/28 11:37:20;;;;;;;17.03;8.40;;;;;;;;;;5083920;28;20043;-73
2023/01/28 11:39:46;;;;;;;15.45;8.07;;;;;;;;;;5094010;28;20775;-73
2023/01/28 11:42:16;;;;;;;10.98;8.07;;;;;;;;;;5088372;28;20063;-73
2023/01/28 11:44:42;;;;;;;11.13;7.80;;;;;;;;;;5092332;28;20069;-73
2023/01/28 11:47:14;;;;;;;12.07;7.80;;;;;;;;;;5093755;28;20052;-73
2023/01/28 11:49:46;;;;;;;11.48;7.25;;;;;;;;;;5093154;28;20044;-73
2023/01/28 11:52:33;;;;;;;11.82;8.15;;;;;;;;;;5091156;28;21958;-73
2023/01/28 11:55:22;;;;;;;12.57;8.10;;;;;;;;;;5022728;28;20052;-73
2023/01/28 11:58:00;;;;;;;15.43;8.13;;;;;;;;;;5073665;28;20128;-73
2023/01/28 12:00:31;;;;;;;9.98;7.07;;;;;;;;;;5080334;28;20051;-73
2023/01/28 12:03:16;;;;;;;11.40;6.85;;;;;;;;;;5093662;28;20078;-74
2023/01/28 12:05:47;;;;;;;9.13;6.78;;;;;;;;;;5089065;28;20043;-74
2023/01/28 12:08:26;;;;;;;10.38;7.05;;;;;;;;;;5086041;28;20067;-73
2023/01/28 12:10:58;;;;;;;10.43;6.80;;;;;;;;;;5081743;28;20541;-74
2023/01/28 12:13:29;;;;;;;10.27;7.15;;;;;;;;;;5092815;28;20071;-73
2023/01/28 12:16:03;;;;;;;12.73;7.20;;;;;;;;;;5086803;28;20058;-74
2023/01/28 12:18:51;;;;;;;10.90;7.07;;;;;;;;;;5064887;28;20397;-73
2023/01/28 12:21:21;;;;;;;11.95;7.72;;;;;;;;;;5073404;28;20036;-74
2023/01/28 12:23:56;;;;;;;12.98;7.20;;;;;;;;;;5091301;28;20044;-73
2023/01/28 12:26:34;;;;;;;10.82;7.80;;;;;;;;;;5090240;28;20043;-73
2023/01/28 12:29:17;;;;;;;14.07;6.82;;;;;;;;;;5082582;28;20083;-73
2023/01/28 12:31:49;;;;;;;11.15;7.28;;;;;;;;;;5085076;28;20040;-73
2023/01/28 12:34:38;;;;;;;10.93;8.02;;;;;;;;;;5072615;28;20057;-73
2023/01/28 12:37:07;;;;;;;14.23;8.27;;;;;;;;;;5075568;28;20446;-73
2023/01/28 12:39:39;;;;;;;14.77;8.95;;;;;;;;;;5088940;28;20505;-73
2023/01/28 12:42:12;;;;;;;11.40;7.75;;;;;;;;;;5091386;28;20494;-72
2023/01/28 12:44:51;;;;;;;11.02;7.57;;;;;;;;;;5092673;28;20102;-73
2023/01/28 12:47:21;;;;;;;13.82;7.25;;;;;;;;;;5085505;28;20106;-73
2023/01/28 12:49:50;;;;;;;11.20;7.28;;;;;;;;;;5082293;28;20067;-74
2023/01/28 12:52:22;;;;;;;13.20;8.07;;;;;;;;;;5072649;28;20044;-74
2023/01/28 12:55:13;;;;;;;11.55;7.70;;;;;;;;;;5083855;28;20033;-73
2023/01/28 12:57:40;;;;;;;12.55;7.75;;;;;;;;;;5079643;28;20066;-73
2023/01/28 13:00:24;;;;;;;11.65;7.30;;;;;;;;;;5088634;28;20037;-73
2023/01/28 13:03:09;;;;;;;10.77;6.97;;;;;;;;;;5084778;28;20441;-73
2023/01/28 13:05:38;;;;;;;11.63;8.43;;;;;;;;;;5075591;28;20052;-73
2023/01/28 13:08:10;;;;;;;10.65;8.18;;;;;;;;;;5082824;28;20040;-74
2023/01/28 13:10:43;;;;;;;10.27;7.85;;;;;;;;;;5090916;28;20044;-73
2023/01/28 13:13:18;;;;;;;11.18;7.57;;;;;;;;;;5062694;28;20052;-73
2023/01/28 13:15:45;;;;;;;11.82;7.28;;;;;;;;;;5087228;28;20090;-73
2023/01/28 13:18:32;;;;;;;10.77;6.80;;;;;;;;;;5091246;28;20052;-73
2023/01/28 13:20:58;;;;;;;11.13;7.57;;;;;;;;;;5077286;28;20391;-73
2023/01/28 13:23:33;;;;;;;13.40;7.95;;;;;;;;;;5089455;28;20430;-73
2023/01/28 13:26:09;;;;;;;11.60;7.53;;;;;;;;;;5084137;28;20040;-73
2023/01/28 13:28:35;;;;;;;12.32;7.40;;;;;;;;;;5091612;28;20398;-73
2023/01/28 13:31:02;;;;;;;11.60;8.07;;;;;;;;;;5078652;28;20383;-73
2023/01/28 13:33:30;;;;;;;9.98;8.07;;;;;;;;;;5086404;28;20056;-72
2023/01/28 13:35:56;;;;;;;10.40;7.65;;;;;;;;;;5089544;28;20048;-73
2023/01/28 13:38:23;;;;;;;12.02;8.63;;;;;;;;;;5073840;28;20410;-73
2023/01/28 13:40:59;;;;;;;12.25;8.23;;;;;;;;;;5086372;28;20425;-74
2023/01/28 13:43:28;;;;;;;15.43;8.48;;;;;;;;;;5090284;28;20051;-74
2023/01/28 13:45:56;;;;;;;10.50;7.60;;;;;;;;;;5072372;28;20045;-73
2023/01/28 13:48:41;;;;;;;12.65;7.80;;;;;;;;;;5087036;28;20048;-74
2023/01/28 13:51:22;;;;;;;11.50;8.02;;;;;;;;;;5091860;28;20048;-73
2023/01/28 13:53:57;;;;;;;11.73;7.63;;;;;;;;;;5091592;28;20122;-73
2023/01/28 13:56:26;;;;;;;11.07;7.68;;;;;;;;;;5080637;28;20107;-73
2023/01/28 13:59:11;;;;;;;10.05;7.70;;;;;;;;;;5075494;28;20059;-74
2023/01/28 14:01:59;;;;;;;11.65;8.07;;;;;;;;;;5083474;28;20094;-73
2023/01/28 14:04:44;;;;;;;11.77;8.82;;;;;;;;;;5085205;28;20053;-73
2023/01/28 14:07:28;;;;;;;10.90;7.90;;;;;;;;;;5075231;28;20059;-73
2023/01/28 14:09:57;;;;;;;12.60;8.85;;;;;;;;;;5084559;28;20525;-74
2023/01/28 14:12:23;;;;;;;13.30;9.23;;;;;;;;;;5074435;28;20040;-73
2023/01/28 14:15:08;;;;;;;15.10;8.88;;;;;;;;;;5082956;28;20051;-73
2023/01/28 14:17:39;;;;;;;13.25;8.88;;;;;;;;;;5084882;28;20090;-73
2023/01/28 14:20:05;;;;;;;14.43;9.98;;;;;;;;;;5085181;28;20051;-73
2023/01/28 14:22:31;;;;;;;13.07;10.15;;;;;;;;;;5088090;28;20494;-73
2023/01/28 14:25:02;;;;;;;14.15;9.95;;;;;;;;;;5086312;28;20048;-73
2023/01/28 14:27:39;;;;;;;14.13;9.93;;;;;;;;;;5085247;28;20131;-73
2023/01/28 14:30:24;;;;;;;17.90;11.27;;;;;;;;;;5084272;28;20097;-73
2023/01/28 14:32:51;;;;;;;17.98;11.65;;;;;;;;;;5091299;28;20421;-75
2023/01/28 14:35:28;;;;;;;16.48;11.43;;;;;;;;;;5094624;28;22288;-73
2023/01/28 14:37:55;;;;;;;20.45;11.48;;;;;;;;;;5090545;28;20068;-73
2023/01/28 14:40:22;;;;;;;20.65;11.02;;;;;;;;;;5081118;28;20435;-73
2023/01/28 14:42:50;;;;;;;17.67;12.32;;;;;;;;;;5094834;28;20032;-73
2023/01/28 14:45:34;;;;;;;15.60;11.07;;;;;;;;;;5086608;28;20048;-74
2023/01/28 14:48:03;;;;;;;20.98;13.18;;;;;;;;;;5084120;28;20098;-73
2023/01/28 14:50:32;;;;;;;18.50;12.38;;;;;;;;;;5090916;28;20044;-73
2023/01/28 14:52:58;;;;;;;20.13;12.38;;;;;;;;;;5074165;28;20048;-74
2023/01/28 14:55:27;;;;;;;19.80;12.23;;;;;;;;;;5066500;28;20059;-74
2023/01/28 14:57:56;;;;;;;17.77;11.77;;;;;;;;;;5086608;28;20055;-73
2023/01/28 15:00:29;;;;;;;20.02;12.38;;;;;;;;;;5081819;28;20040;-73
2023/01/28 15:02:56;;;;;;;19.33;11.75;;;;;;;;;;5083414;28;20049;-73
2023/01/28 15:05:24;;;;;;;22.42;11.95;;;;;;;;;;5080934;28;20115;-74
2023/01/28 15:07:50;;;;;;;18.02;11.57;;;;;;;;;;5087412;28;20131;-73
2023/01/28 15:10:19;;;;;;;20.48;11.82;;;;;;;;;;5092472;28;20516;-72